Forside
METAR-TAF:

METAR-TAF

Lufthavne :

Watertown Municipal Airport

Watertown, Wisconsin, USA

Breddekreds: 43-10N, længdekreds: 088-43W, højde: 254 m

Aktuelle vejr

Denne rapport blev lavet for 9 minutter siden, kl. 21:15 UTC
Vind 5 kt fra vest
Temperatur -1°C
Fugtighed 100%
Tryk 1011 hPa
Sigt: 16.1 km
Overskyet i en højde af 900 ft

METAR: KRYV 262115Z AUTO 27005KT 10SM OVC009 M01/M01 A2985 RMK AO2 T10071007

Tid: 15:24 (21:24 UTC)


TAF: fraværende

Vejrobservationer og prognoser fra mere end 4000 lufthavne (METAR og TAF).

De gule og røde prikker repræsenterer de meteorologiske stationer.

Flyt musen over at se navnet på stationen.

Så klik over at se vejr observationer og prognoser.

At skifte det kort: Klik på de grønne knapper med et sort kors for at zoome ind; på den grønne knap med en bindestreg for at zoome ud; eller på de grønne pile for tilstødende kort.


METAR-TAF: